createdAt,value
2022-07-29T00:01:50.278Z,101530.13
2022-07-29T00:04:17.129Z,101530.44
2022-07-29T00:06:43.871Z,101534.09
2022-07-29T00:09:10.440Z,101536.06
2022-07-29T00:11:36.857Z,101538.63
2022-07-29T00:14:03.552Z,101533.34
2022-07-29T00:16:30.194Z,101530.16
2022-07-29T00:18:59.490Z,101525.13
2022-07-29T00:21:28.281Z,101526.00
2022-07-29T00:23:54.925Z,101516.97
2022-07-29T00:26:21.356Z,101510.75
2022-07-29T00:28:47.771Z,101528.91
2022-07-29T00:31:14.231Z,101522.94
2022-07-29T00:33:40.711Z,101523.31
2022-07-29T00:36:07.220Z,101521.28
2022-07-29T00:38:33.684Z,101515.66
2022-07-29T00:41:00.159Z,101517.69
2022-07-29T00:43:26.615Z,101510.38
2022-07-29T00:45:53.472Z,101518.03
2022-07-29T00:48:19.956Z,101513.25
2022-07-29T00:50:46.401Z,101512.69
2022-07-29T00:53:12.972Z,101504.81
2022-07-29T00:55:39.495Z,101508.53
2022-07-29T00:58:05.947Z,101512.72
2022-07-29T01:00:32.506Z,101512.50
2022-07-29T01:02:59.300Z,101499.78
2022-07-29T01:05:48.178Z,101499.56
2022-07-29T01:08:16.766Z,101501.22
2022-07-29T01:10:44.689Z,101496.41
2022-07-29T01:13:11.898Z,101495.91
2022-07-29T01:15:50.428Z,101494.75
2022-07-29T01:18:29.376Z,101484.13
2022-07-29T01:21:24.795Z,101485.25
2022-07-29T01:24:27.421Z,101472.84
2022-07-29T01:27:04.839Z,101465.50
2022-07-29T01:29:40.337Z,101463.00
2022-07-29T01:32:27.498Z,101456.47
2022-07-29T01:35:18.036Z,101440.88
2022-07-29T01:38:06.236Z,101431.81
2022-07-29T01:40:40.774Z,101422.25
2022-07-29T01:43:12.158Z,101417.13
2022-07-29T01:45:42.569Z,101423.63
2022-07-29T01:48:16.142Z,101419.06
2022-07-29T01:50:49.586Z,101418.78
2022-07-29T01:53:38.088Z,101423.75
2022-07-29T01:56:07.659Z,101422.06
2022-07-29T01:58:37.717Z,101423.19
2022-07-29T02:01:06.243Z,101416.41
2022-07-29T02:03:36.650Z,101419.78
2022-07-29T02:06:05.409Z,101418.56
2022-07-29T02:08:33.797Z,101414.75
2022-07-29T02:11:02.339Z,101414.97
2022-07-29T02:13:30.896Z,101423.25
2022-07-29T02:15:59.357Z,101427.50
2022-07-29T02:18:28.949Z,101420.22
2022-07-29T02:20:57.458Z,101421.66
2022-07-29T02:23:24.901Z,101427.84
2022-07-29T02:25:55.964Z,101432.22
2022-07-29T02:28:26.350Z,101423.81
2022-07-29T02:30:56.505Z,101426.06
2022-07-29T02:33:25.599Z,101424.34
2022-07-29T02:35:53.100Z,101424.25
2022-07-29T02:38:39.750Z,101418.06
2022-07-29T02:41:12.977Z,101419.72
2022-07-29T02:43:41.578Z,101419.13
2022-07-29T02:46:29.305Z,101425.31
2022-07-29T02:49:01.905Z,101411.88
2022-07-29T02:51:44.543Z,101409.66
2022-07-29T02:54:17.477Z,101408.00
2022-07-29T02:56:46.194Z,101406.91
2022-07-29T02:59:14.978Z,101422.06
2022-07-29T03:01:44.758Z,101414.13
2022-07-29T03:04:14.258Z,101416.06
2022-07-29T03:06:41.942Z,101415.75
2022-07-29T03:09:13.240Z,101421.56
2022-07-29T03:11:49.847Z,101421.03
2022-07-29T03:14:20.357Z,101416.84
2022-07-29T03:16:47.812Z,101413.75
2022-07-29T03:19:14.703Z,101411.88
2022-07-29T03:21:41.199Z,101411.03
2022-07-29T03:24:10.561Z,101411.81
2022-07-29T03:26:37.339Z,101412.41
2022-07-29T03:29:03.776Z,101409.81
2022-07-29T03:31:30.271Z,101403.34
2022-07-29T03:33:56.859Z,101399.59
2022-07-29T03:36:23.295Z,101400.75
2022-07-29T03:38:50.337Z,101406.63
2022-07-29T03:41:22.281Z,101398.47
2022-07-29T03:43:52.533Z,101403.56
2022-07-29T03:46:21.877Z,101391.13
2022-07-29T03:48:51.503Z,101397.09
2022-07-29T03:51:18.129Z,101394.50
2022-07-29T03:53:45.337Z,101399.59
2022-07-29T03:56:17.667Z,101388.94
2022-07-29T03:58:45.297Z,101391.41
2022-07-29T04:01:12.841Z,101389.41
2022-07-29T04:03:40.032Z,101398.41
2022-07-29T04:06:07.889Z,101402.06
2022-07-29T04:08:35.668Z,101394.22
2022-07-29T04:11:03.392Z,101399.75
2022-07-29T04:13:29.957Z,101399.00
2022-07-29T04:15:56.620Z,101405.50
2022-07-29T04:18:23.104Z,101391.19
2022-07-29T04:20:49.659Z,101402.13
2022-07-29T04:23:16.328Z,101409.75
2022-07-29T04:25:43.605Z,101411.44
2022-07-29T04:28:10.614Z,101403.81
2022-07-29T04:30:38.077Z,101399.53
2022-07-29T04:33:07.790Z,101411.97
2022-07-29T04:35:43.628Z,101409.63
2022-07-29T04:38:19.034Z,101413.59
2022-07-29T04:40:45.494Z,101413.53
2022-07-29T04:43:14.276Z,101401.44
2022-07-29T04:45:42.165Z,101402.72
2022-07-29T04:48:08.765Z,101410.28
2022-07-29T04:50:35.282Z,101409.06
2022-07-29T04:53:01.731Z,101410.06
2022-07-29T04:55:28.154Z,101413.94
2022-07-29T04:57:54.596Z,101411.28
2022-07-29T05:00:21.170Z,101410.06
2022-07-29T05:02:47.609Z,101409.97
2022-07-29T05:05:14.082Z,101413.88
2022-07-29T05:07:41.877Z,101415.09
2022-07-29T05:10:09.180Z,101408.63
2022-07-29T05:12:35.836Z,101407.94
2022-07-29T05:15:02.273Z,101406.59
2022-07-29T05:17:28.750Z,101405.34
2022-07-29T05:19:55.211Z,101401.88
2022-07-29T05:22:22.331Z,101403.75
2022-07-29T05:24:48.759Z,101391.94
2022-07-29T05:27:15.178Z,101387.53
2022-07-29T05:29:43.842Z,101391.63
2022-07-29T05:32:12.777Z,101401.28
2022-07-29T05:34:50.059Z,101405.38
2022-07-29T05:37:19.429Z,101405.47
2022-07-29T05:39:48.662Z,101410.81
2022-07-29T05:42:17.250Z,101412.72
2022-07-29T05:44:43.715Z,101398.38
2022-07-29T05:47:10.194Z,101405.78
2022-07-29T05:49:36.739Z,101400.97
2022-07-29T05:52:03.794Z,101412.59
2022-07-29T05:54:30.266Z,101390.25
2022-07-29T05:56:56.686Z,101397.13
2022-07-29T05:59:27.055Z,101390.34
2022-07-29T06:01:57.947Z,101394.28
2022-07-29T06:04:24.635Z,101404.72
2022-07-29T06:06:51.113Z,101393.91
2022-07-29T06:09:17.544Z,101394.09
2022-07-29T06:11:44.706Z,101390.59
2022-07-29T06:14:11.120Z,101400.28
2022-07-29T06:16:37.950Z,101398.53
2022-07-29T06:19:05.307Z,101397.69
2022-07-29T06:21:31.736Z,101391.00
2022-07-29T06:23:58.158Z,101393.56
2022-07-29T06:26:30.605Z,101390.59
2022-07-29T06:28:57.899Z,101390.66
2022-07-29T06:31:24.353Z,101398.03
2022-07-29T06:33:50.819Z,101395.06
2022-07-29T06:36:17.234Z,101397.75
2022-07-29T06:38:49.165Z,101402.44
2022-07-29T06:41:17.197Z,101405.69
2022-07-29T06:43:52.236Z,101401.38
2022-07-29T06:46:22.341Z,101403.72
2022-07-29T06:48:49.460Z,101408.34
2022-07-29T06:51:17.332Z,101400.19
2022-07-29T06:54:00.667Z,101404.72
2022-07-29T06:56:30.952Z,101406.91
2022-07-29T06:58:57.381Z,101408.44
2022-07-29T07:01:23.863Z,101410.44
2022-07-29T07:03:50.380Z,101418.28
2022-07-29T07:06:17.269Z,101418.44
2022-07-29T07:08:43.701Z,101418.78
2022-07-29T07:11:10.167Z,101414.56
2022-07-29T07:13:36.907Z,101412.16
2022-07-29T07:16:04.151Z,101406.47
2022-07-29T07:18:30.704Z,101405.75
2022-07-29T07:20:58.357Z,101403.38
2022-07-29T07:23:25.636Z,101410.22
2022-07-29T07:25:52.294Z,101407.13
2022-07-29T07:28:18.826Z,101407.06
2022-07-29T07:30:51.213Z,101405.41
2022-07-29T07:33:17.704Z,101399.53
2022-07-29T07:35:45.194Z,101405.59
2022-07-29T07:38:11.717Z,101404.13
2022-07-29T07:40:38.185Z,101405.47
2022-07-29T07:43:04.812Z,101401.16
2022-07-29T07:45:33.605Z,101395.13
2022-07-29T07:48:00.116Z,101395.44
2022-07-29T07:50:26.941Z,101396.00
2022-07-29T07:52:56.009Z,101387.94
2022-07-29T07:55:22.784Z,101391.81
2022-07-29T07:57:49.302Z,101391.91
2022-07-29T08:00:17.216Z,101388.97
2022-07-29T08:02:44.081Z,101392.41
2022-07-29T08:05:12.705Z,101389.56
2022-07-29T08:07:39.938Z,101383.91
2022-07-29T08:10:06.824Z,101385.75
2022-07-29T08:12:33.244Z,101389.16
2022-07-29T08:14:59.864Z,101380.19
2022-07-29T08:17:27.498Z,101375.25
2022-07-29T08:19:53.954Z,101374.22
2022-07-29T08:22:20.451Z,101373.56
2022-07-29T08:24:53.424Z,101374.09
2022-07-29T08:27:42.517Z,101374.91
2022-07-29T08:30:08.365Z,101368.59
2022-07-29T08:32:52.631Z,101365.59
2022-07-29T08:35:21.805Z,101364.50
2022-07-29T08:37:48.535Z,101364.84
2022-07-29T08:40:15.351Z,101363.75
2022-07-29T08:42:41.810Z,101371.75
2022-07-29T08:45:08.876Z,101360.22
2022-07-29T08:47:39.501Z,101367.75
2022-07-29T08:50:06.210Z,101363.56
2022-07-29T08:52:36.828Z,101361.31
2022-07-29T08:55:03.270Z,101363.13
2022-07-29T08:57:30.645Z,101366.69
2022-07-29T09:00:06.253Z,101363.16
2022-07-29T09:02:41.182Z,101364.44
2022-07-29T09:05:08.341Z,101362.34
2022-07-29T09:07:35.302Z,101364.06
2022-07-29T09:10:02.666Z,101364.00
2022-07-29T09:12:33.696Z,101364.31
2022-07-29T09:15:02.721Z,101353.50
2022-07-29T09:17:46.849Z,101360.28
2022-07-29T09:20:16.386Z,101357.03
2022-07-29T09:22:43.033Z,101347.38
2022-07-29T09:25:12.414Z,101348.38
2022-07-29T09:27:39.059Z,101356.00
2022-07-29T09:30:08.096Z,101351.16
2022-07-29T09:32:55.147Z,101350.25
2022-07-29T09:35:24.204Z,101344.22
2022-07-29T09:37:50.832Z,101344.81
2022-07-29T09:40:22.383Z,101343.38
2022-07-29T09:42:49.631Z,101339.69
2022-07-29T09:45:33.961Z,101340.53
2022-07-29T09:48:14.191Z,101335.84
2022-07-29T09:50:42.040Z,101335.75
2022-07-29T09:53:10.514Z,101321.50
2022-07-29T09:55:49.296Z,101330.03
2022-07-29T09:58:20.090Z,101326.63
2022-07-29T10:00:47.897Z,101325.19
2022-07-29T10:03:16.663Z,101326.69
2022-07-29T10:05:44.454Z,101322.84
2022-07-29T10:08:13.308Z,101323.38
2022-07-29T10:10:42.655Z,101325.47
2022-07-29T10:13:15.986Z,101317.63
2022-07-29T10:15:45.794Z,101322.25
2022-07-29T10:18:14.379Z,101325.78
2022-07-29T10:20:41.099Z,101317.34
2022-07-29T10:23:07.546Z,101320.56
2022-07-29T10:25:34.447Z,101330.47
2022-07-29T10:28:00.877Z,101316.81
2022-07-29T10:30:27.699Z,101326.53
2022-07-29T10:33:18.010Z,101318.16
2022-07-29T10:36:09.611Z,101322.63
2022-07-29T10:38:52.826Z,101325.41
2022-07-29T10:41:46.668Z,101324.19
2022-07-29T10:44:23.217Z,101317.72
2022-07-29T10:46:52.070Z,101316.81
2022-07-29T10:49:27.703Z,101321.31
2022-07-29T10:52:12.402Z,101317.97
2022-07-29T10:54:42.512Z,101309.03
2022-07-29T10:57:53.340Z,101307.50
2022-07-29T11:00:17.050Z,101309.72
2022-07-29T11:02:45.290Z,101308.66
2022-07-29T11:05:20.323Z,101301.34
2022-07-29T11:08:20.368Z,101301.66
2022-07-29T11:10:48.360Z,101298.41
2022-07-29T11:13:44.564Z,101295.19
2022-07-29T11:16:13.802Z,101287.22
2022-07-29T11:19:14.007Z,101295.38
2022-07-29T11:22:00.315Z,101283.13
2022-07-29T11:24:30.282Z,101294.72
2022-07-29T11:27:17.986Z,101292.41
2022-07-29T11:29:56.363Z,101295.09
2022-07-29T11:32:25.443Z,101283.06
2022-07-29T11:35:17.280Z,101283.75
2022-07-29T11:37:52.801Z,101286.53
2022-07-29T11:40:24.651Z,101283.22
2022-07-29T11:42:51.862Z,101276.84
2022-07-29T11:45:43.218Z,101272.00
2022-07-29T11:48:29.494Z,101274.25
2022-07-29T11:50:54.712Z,101268.50
2022-07-29T11:53:21.831Z,101271.47
2022-07-29T11:55:56.131Z,101267.22
2022-07-29T11:58:26.156Z,101288.50
2022-07-29T12:00:53.185Z,101266.69
2022-07-29T12:03:33.028Z,101267.19
2022-07-29T12:06:02.935Z,101268.78
2022-07-29T12:08:30.686Z,101256.03
2022-07-29T12:10:57.201Z,101257.50
2022-07-29T12:13:31.212Z,101248.22
2022-07-29T12:16:04.791Z,101248.72
2022-07-29T12:18:31.954Z,101251.41
2022-07-29T12:21:03.439Z,101241.47
2022-07-29T12:23:34.409Z,101238.13
2022-07-29T12:26:04.455Z,101238.56
2022-07-29T12:28:30.924Z,101234.09
2022-07-29T12:30:57.519Z,101240.44
2022-07-29T12:33:28.418Z,101237.94
2022-07-29T12:36:06.310Z,101226.47
2022-07-29T12:38:35.954Z,101220.41
2022-07-29T12:41:04.436Z,101214.66
2022-07-29T12:43:31.333Z,101228.88
2022-07-29T12:45:58.474Z,101224.19
2022-07-29T12:48:35.449Z,101229.19
2022-07-29T12:51:03.284Z,101228.03
2022-07-29T12:53:30.171Z,101229.78
2022-07-29T12:56:00.462Z,101229.06
2022-07-29T12:58:31.401Z,101227.94
2022-07-29T13:01:07.168Z,101218.88
2022-07-29T13:03:56.867Z,101215.25
2022-07-29T13:06:31.570Z,101209.41
2022-07-29T13:09:04.754Z,101193.81
2022-07-29T13:11:35.299Z,101210.19
2022-07-29T13:14:06.816Z,101196.47
2022-07-29T13:16:33.815Z,101208.38
2022-07-29T13:19:12.244Z,101197.53
2022-07-29T13:21:39.815Z,101202.09
2022-07-29T13:24:07.936Z,101193.75
2022-07-29T13:26:34.523Z,101188.91
2022-07-29T13:29:01.204Z,101185.88
2022-07-29T13:31:27.746Z,101190.91
2022-07-29T13:33:54.230Z,101196.22
2022-07-29T13:36:21.348Z,101190.75
2022-07-29T13:38:47.818Z,101191.97
2022-07-29T13:41:14.294Z,101194.28
2022-07-29T13:43:40.755Z,101186.28
2022-07-29T13:46:07.280Z,101192.88
2022-07-29T13:48:33.828Z,101181.41
2022-07-29T13:51:00.271Z,101182.88
2022-07-29T13:53:27.377Z,101190.84
2022-07-29T13:55:54.143Z,101181.47
2022-07-29T13:58:20.577Z,101179.09
2022-07-29T14:00:47.632Z,101184.78
2022-07-29T14:03:14.058Z,101186.81
2022-07-29T14:05:40.487Z,101179.59
2022-07-29T14:08:06.918Z,101178.28
2022-07-29T14:10:43.783Z,101176.28
2022-07-29T14:13:24.449Z,101175.91
2022-07-29T14:15:51.906Z,101170.13
2022-07-29T14:18:18.326Z,101153.69
2022-07-29T14:20:44.847Z,101166.41
2022-07-29T14:23:11.307Z,101154.44
2022-07-29T14:25:40.747Z,101155.31
2022-07-29T14:28:08.509Z,101155.63
2022-07-29T14:30:34.948Z,101153.56
2022-07-29T14:33:01.442Z,101151.88
2022-07-29T14:35:27.898Z,101151.50
2022-07-29T14:37:54.415Z,101148.19
2022-07-29T14:40:21.043Z,101142.94
2022-07-29T14:42:47.584Z,101152.41
2022-07-29T14:45:14.017Z,101145.69
2022-07-29T14:47:41.187Z,101134.34
2022-07-29T14:50:08.662Z,101146.97
2022-07-29T14:52:35.854Z,101136.34
2022-07-29T14:55:02.875Z,101137.97
2022-07-29T14:57:29.494Z,101146.94
2022-07-29T14:59:56.327Z,101148.88
2022-07-29T15:02:25.637Z,101142.97
2022-07-29T15:05:02.028Z,101146.75
2022-07-29T15:07:28.972Z,101141.56
2022-07-29T15:09:59.524Z,101137.41
2022-07-29T15:12:26.322Z,101142.75
2022-07-29T15:14:52.820Z,101139.97
2022-07-29T15:17:19.280Z,101128.53
2022-07-29T15:19:45.764Z,101128.16
2022-07-29T15:22:12.194Z,101138.41
2022-07-29T15:24:38.603Z,101137.91
2022-07-29T15:27:05.114Z,101126.09
2022-07-29T15:29:31.660Z,101128.63
2022-07-29T15:31:58.371Z,101130.72
2022-07-29T15:34:24.945Z,101119.50
2022-07-29T15:36:53.347Z,101126.88
2022-07-29T15:39:21.733Z,101120.25
2022-07-29T15:41:48.276Z,101127.19
2022-07-29T15:44:14.693Z,101120.28
2022-07-29T15:47:00.244Z,101120.69
2022-07-29T15:49:47.555Z,101117.19
2022-07-29T15:52:17.819Z,101110.97
2022-07-29T15:54:44.347Z,101115.88
2022-07-29T15:57:10.797Z,101110.91
2022-07-29T15:59:37.440Z,101115.91
2022-07-29T16:02:04.191Z,101105.13
2022-07-29T16:04:31.934Z,101105.78
2022-07-29T16:06:58.775Z,101111.94
2022-07-29T16:09:26.450Z,101112.84
2022-07-29T16:11:54.009Z,101104.09
2022-07-29T16:14:20.571Z,101105.78
2022-07-29T16:16:47.581Z,101094.59
2022-07-29T16:19:14.550Z,101099.13
2022-07-29T16:21:41.011Z,101092.50
2022-07-29T16:24:08.004Z,101091.25
2022-07-29T16:26:35.067Z,101089.16
2022-07-29T16:29:01.943Z,101080.59
2022-07-29T16:31:28.400Z,101083.00
2022-07-29T16:33:56.045Z,101081.31
2022-07-29T16:36:23.171Z,101069.38
2022-07-29T16:38:50.343Z,101076.34
2022-07-29T16:41:16.746Z,101074.16
2022-07-29T16:43:43.166Z,101067.94
2022-07-29T16:46:11.177Z,101069.16
2022-07-29T16:48:45.332Z,101073.28
2022-07-29T16:51:12.018Z,101065.91
2022-07-29T16:53:41.190Z,101078.25
2022-07-29T16:56:07.598Z,101078.91
2022-07-29T16:58:40.503Z,101079.22
2022-07-29T17:01:09.954Z,101070.91
2022-07-29T17:03:36.433Z,101071.44
2022-07-29T17:06:02.897Z,101075.91
2022-07-29T17:08:29.314Z,101076.03
2022-07-29T17:10:55.965Z,101075.53
2022-07-29T17:13:22.387Z,101075.53
2022-07-29T17:15:48.912Z,101080.84
2022-07-29T17:18:15.426Z,101086.69
2022-07-29T17:20:42.077Z,101083.25
2022-07-29T17:23:08.713Z,101075.94
2022-07-29T17:25:35.288Z,101074.50
2022-07-29T17:28:01.724Z,101079.06
2022-07-29T17:30:29.193Z,101076.97
2022-07-29T17:32:55.769Z,101070.78
2022-07-29T17:35:41.032Z,101079.31
2022-07-29T17:38:07.479Z,101076.91
2022-07-29T17:40:33.902Z,101068.25
2022-07-29T17:43:00.337Z,101075.22
2022-07-29T17:45:48.935Z,101073.97
2022-07-29T17:48:13.776Z,101066.41
2022-07-29T17:50:40.223Z,101070.50
2022-07-29T17:53:09.607Z,101073.88
2022-07-29T17:55:45.182Z,101076.56
2022-07-29T17:58:11.764Z,101076.63
2022-07-29T18:00:38.265Z,101075.16
2022-07-29T18:03:04.751Z,101078.44
2022-07-29T18:05:31.282Z,101078.94
2022-07-29T18:07:57.877Z,101083.06
2022-07-29T18:10:24.358Z,101080.50
2022-07-29T18:12:52.370Z,101086.13
2022-07-29T18:15:18.825Z,101080.78
2022-07-29T18:17:56.580Z,101077.81
2022-07-29T18:20:25.084Z,101086.25
2022-07-29T18:22:51.545Z,101084.06
2022-07-29T18:25:18.170Z,101083.94
2022-07-29T18:27:45.094Z,101088.16
2022-07-29T18:30:11.599Z,101089.00
2022-07-29T18:32:38.034Z,101092.81
2022-07-29T18:35:05.782Z,101089.25
2022-07-29T18:38:01.135Z,101100.91
2022-07-29T18:40:20.922Z,101105.88
2022-07-29T18:42:47.638Z,101100.53
2022-07-29T18:45:19.488Z,101102.56
2022-07-29T18:47:47.549Z,101110.59
2022-07-29T18:50:14.629Z,101102.81
2022-07-29T18:52:41.200Z,101104.78
2022-07-29T18:55:08.434Z,101106.47
2022-07-29T18:57:54.524Z,101106.72
2022-07-29T19:00:22.475Z,101106.84
2022-07-29T19:02:49.275Z,101102.47
2022-07-29T19:05:15.811Z,101102.47
2022-07-29T19:07:42.247Z,101109.88
2022-07-29T19:10:09.089Z,101110.00
2022-07-29T19:12:35.582Z,101117.13
2022-07-29T19:15:03.042Z,101121.47
2022-07-29T19:17:29.468Z,101118.19
2022-07-29T19:19:56.038Z,101126.00
2022-07-29T19:22:22.823Z,101124.50
2022-07-29T19:24:50.249Z,101130.69
2022-07-29T19:27:17.449Z,101134.13
2022-07-29T19:29:44.359Z,101129.72
2022-07-29T19:32:10.942Z,101129.25
2022-07-29T19:34:37.516Z,101135.13
2022-07-29T19:37:04.117Z,101133.06
2022-07-29T19:39:35.001Z,101140.84
2022-07-29T19:42:03.551Z,101145.06
2022-07-29T19:44:30.198Z,101138.44
2022-07-29T19:46:56.987Z,101136.78
2022-07-29T19:49:23.709Z,101142.78
2022-07-29T19:51:50.246Z,101142.88
2022-07-29T19:54:20.007Z,101143.44
2022-07-29T19:56:46.447Z,101141.97
2022-07-29T19:59:12.901Z,101142.63
2022-07-29T20:01:39.544Z,101142.34
2022-07-29T20:04:06.038Z,101146.31
2022-07-29T20:06:32.575Z,101135.63
2022-07-29T20:08:59.198Z,101139.03
2022-07-29T20:11:26.564Z,101142.72
2022-07-29T20:13:53.008Z,101147.28
2022-07-29T20:16:19.511Z,101144.31
2022-07-29T20:18:45.993Z,101139.25
2022-07-29T20:21:12.420Z,101141.63
2022-07-29T20:23:38.923Z,101143.13
2022-07-29T20:26:09.288Z,101148.09
2022-07-29T20:28:36.163Z,101150.06
2022-07-29T20:31:02.779Z,101144.63
2022-07-29T20:33:29.344Z,101146.47
2022-07-29T20:35:56.621Z,101151.91
2022-07-29T20:38:23.083Z,101150.13
2022-07-29T20:40:50.698Z,101154.56
2022-07-29T20:43:17.141Z,101151.41
2022-07-29T20:45:43.563Z,101153.31
2022-07-29T20:48:10.562Z,101157.13
2022-07-29T20:50:37.024Z,101158.50
2022-07-29T20:53:03.487Z,101159.44
2022-07-29T20:55:29.963Z,101162.47
2022-07-29T20:57:56.401Z,101163.88
2022-07-29T21:00:22.916Z,101162.47
2022-07-29T21:02:49.427Z,101161.28
2022-07-29T21:05:16.036Z,101169.03
2022-07-29T21:07:42.562Z,101169.84
2022-07-29T21:10:09.398Z,101169.53
2022-07-29T21:12:35.830Z,101169.19
2022-07-29T21:15:06.235Z,101162.75
2022-07-29T21:17:38.951Z,101169.72
2022-07-29T21:20:08.485Z,101168.38
2022-07-29T21:22:34.983Z,101167.56
2022-07-29T21:25:01.643Z,101167.44
2022-07-29T21:27:46.619Z,101168.28
2022-07-29T21:30:13.053Z,101170.88
2022-07-29T21:32:39.530Z,101168.97
2022-07-29T21:35:14.508Z,101160.19
2022-07-29T21:37:52.672Z,101168.53
2022-07-29T21:40:19.091Z,101162.66
2022-07-29T21:42:45.624Z,101163.50
2022-07-29T21:45:13.422Z,101165.41
2022-07-29T21:47:39.863Z,101166.00
2022-07-29T21:50:06.646Z,101164.34
2022-07-29T21:52:33.152Z,101170.88
2022-07-29T21:54:59.600Z,101160.19
2022-07-29T21:57:26.522Z,101164.34
2022-07-29T21:59:53.039Z,101165.53
2022-07-29T22:02:19.462Z,101174.09
2022-07-29T22:04:45.965Z,101166.63
2022-07-29T22:07:12.424Z,101167.44
2022-07-29T22:09:38.841Z,101163.16
2022-07-29T22:12:05.653Z,101166.88
2022-07-29T22:14:32.082Z,101162.34
2022-07-29T22:16:59.549Z,101164.75
2022-07-29T22:19:27.514Z,101171.63
2022-07-29T22:21:55.424Z,101169.00
2022-07-29T22:24:21.875Z,101165.22
2022-07-29T22:26:48.328Z,101161.31
2022-07-29T22:29:17.593Z,101168.56
2022-07-29T22:31:44.655Z,101151.56
2022-07-29T22:34:13.340Z,101153.59
2022-07-29T22:36:41.000Z,101151.81
2022-07-29T22:39:07.520Z,101156.00
2022-07-29T22:41:33.936Z,101164.66
2022-07-29T22:44:00.407Z,101157.97
2022-07-29T22:46:26.884Z,101139.56
2022-07-29T22:48:53.362Z,101141.22
2022-07-29T22:51:19.848Z,101139.06
2022-07-29T22:53:46.942Z,101134.91
2022-07-29T22:56:13.594Z,101133.16
2022-07-29T22:58:40.051Z,101132.44
2022-07-29T23:01:06.490Z,101128.75
2022-07-29T23:03:33.015Z,101126.72
2022-07-29T23:05:59.467Z,101123.88
2022-07-29T23:08:26.099Z,101123.06
2022-07-29T23:10:52.529Z,101127.91
2022-07-29T23:13:18.962Z,101122.22
2022-07-29T23:15:45.515Z,101129.34
2022-07-29T23:18:12.219Z,101127.72
2022-07-29T23:20:38.868Z,101132.00
2022-07-29T23:23:05.317Z,101130.56
2022-07-29T23:25:32.095Z,101131.88
2022-07-29T23:27:58.529Z,101126.97
2022-07-29T23:30:25.061Z,101132.22
2022-07-29T23:32:51.678Z,101122.56
2022-07-29T23:35:18.424Z,101133.66
2022-07-29T23:37:46.132Z,101138.72
2022-07-29T23:40:14.743Z,101128.19
2022-07-29T23:42:42.285Z,101135.66
2022-07-29T23:45:09.892Z,101137.84
2022-07-29T23:47:36.303Z,101130.28
2022-07-29T23:50:02.743Z,101127.09
2022-07-29T23:52:29.271Z,101122.78
2022-07-29T23:54:55.743Z,101129.41
2022-07-29T23:57:42.190Z,101130.34
